Flight Track Log - Related Links

Times and Time Zones

All times are in EDT time to prevent confusion due to time zone crossing. See the LAN461 flight status page for this flight to view local times or setup timezone preferences in your user account.

Time Position Orientation Groundspeed Altitude Reporting Facility
EDT Latitude Longitude Course Direction KTS MPH feet Rate Location/Type
Tue 04:53:05 PM -33.7360 -70.7840 177° South 356 410 12,100  Level FlightAware ADS-B
Tue 04:53:40 PM -33.8030 -70.7730 172° South 363 418 14,000 2,694 Climbing FlightAware ADS-B
Tue 04:53:54 PM -33.8170 -70.7620 147° Southeast 366 421 14,300 2,200 Climbing FlightAware ADS-B
Tue 04:54:10 PM -33.8370 -70.7340 131° Southeast 371 427 15,100 2,478 Climbing FlightAware ADS-B
Tue 04:54:40 PM -33.8680 -70.6850 127° Southeast 377 434 16,200 2,206 Climbing FlightAware ADS-B
Tue 04:55:18 PM -33.9120 -70.6170 128° Southeast 385 443 17,600 2,028 Climbing FlightAware ADS-B
Tue 04:55:51 PM -33.9490 -70.5610 129° Southeast 399 459 18,600 1,917 Climbing FlightAware ADS-B
Tue 04:56:30 PM -33.9920 -70.4850 124° Southeast 412 474 19,900 1,806 Climbing FlightAware ADS-B
Tue 04:57:24 PM -34.0250 -70.3680 109° East 430 495 21,400 1,648 Climbing FlightAware ADS-B
Tue 04:58:01 PM -34.0500 -70.2830 110° East 434 499 22,400 1,364 Climbing FlightAware ADS-B
Tue 04:58:30 PM -34.0630 -70.2370 109° East 445 512 22,900 857 Climbing FlightAware ADS-B
Tue 04:59:11 PM -34.0930 -70.1320 109° East 445 512 23,400 390 Climbing FlightAware ADS-B
Tue 04:59:47 PM -34.1140 -70.0600 109° East 445 512 23,400  Level FlightAware ADS-B
Tue 05:00:23 PM -34.1340 -69.9880 109° East 445 512 23,400  Level FlightAware ADS-B
Tue 05:00:59 PM -34.1550 -69.9160 109° East 445 512 23,400  Level FlightAware ADS-B
Tue 05:01:35 PM -34.1750 -69.8440 109° East 445 512 23,400  Level FlightAware ADS-B
Tue 05:02:11 PM -34.1960 -69.7720 109° East 445 512 23,400 1,409 Level FlightAware ADS-B
Tue 05:04:00 PM -34.2118 -69.5689 95° East  Level Estimated
Tue 05:05:00 PM -34.2203 -69.4571 95° East  Level Estimated
Tue 05:05:54 PM -34.3220 -69.0290 95° East 32,100  Level FlightAware ADS-B
Tue 05:06:00 PM -34.2288 -69.3452 95° East  Level Estimated
Tue 05:08:00 PM -34.3373 -68.7936 95° East  Level Estimated
Tue 05:09:00 PM -34.3444 -68.6814 94° East  Level Estimated
Tue 05:09:04 PM -34.3970 -68.4770 94° East 35,000  Level FlightAware ADS-B
Tue 05:09:49 PM -34.4130 -68.3590 99° East 514 592 35,000  Level FlightAware ADS-B
Tue 05:10:25 PM -34.4240 -68.2720 99° East 514 592 35,000  Level FlightAware ADS-B
Tue 05:11:01 PM -34.4350 -68.1850 99° East 514 592 35,000  Level FlightAware ADS-B
Tue 05:11:56 PM -34.4530 -68.0520 99° East 514 592 35,000  Level FlightAware ADS-B
Tue 05:12:32 PM -34.4640 -67.9650 99° East 514 592 35,000  Level FlightAware ADS-B
Tue 05:13:06 PM -34.4750 -67.8820 99° East 514 592 35,000  Level FlightAware ADS-B
Tue 05:13:43 PM -34.4860 -67.7930 99° East 514 592 35,000  Level FlightAware ADS-B
Tue 05:14:19 PM -34.4980 -67.7050 99° East 514 592 35,000  Level FlightAware ADS-B
Tue 05:14:55 PM -34.5090 -67.6180 99° East 514 592 35,000  Level FlightAware ADS-B
Tue 05:15:31 PM -34.5210 -67.5310 100° East 514 592 35,000  Level FlightAware ADS-B
Tue 05:16:07 PM -34.5320 -67.4440 99° East 514 592 35,000  Level FlightAware ADS-B
Tue 05:16:44 PM -34.5440 -67.3540 99° East 514 592 35,000  Level FlightAware ADS-B
Tue 05:17:18 PM -34.5540 -67.2720 98° East 514 592 35,000  Level FlightAware ADS-B
Tue 05:17:55 PM -34.5660 -67.1820 99° East 514 592 35,000  Level FlightAware ADS-B
Tue 05:18:32 PM -34.5780 -67.0920 99° East 514 592 35,000  Level FlightAware ADS-B
Tue 05:19:08 PM -34.5890 -67.0050 99° East 514 592 35,000 -116 Level FlightAware ADS-B
Tue 05:21:00 PM -34.5955 -66.7946 92° East  Level Estimated
Tue 05:22:00 PM -34.5988 -66.6818 92° East  Level Estimated
Tue 05:23:00 PM -34.6020 -66.5691 92° East  Level Estimated
Tue 05:24:00 PM -34.6051 -66.4563 92° East  Level Estimated
Tue 05:25:00 PM -34.6081 -66.3435 92° East  Level Estimated
Tue 05:26:00 PM -34.6110 -66.2308 92° East  Level Estimated
Tue 05:27:00 PM -34.6138 -66.1180 92° East  Level Estimated
Tue 05:28:00 PM -34.6165 -66.0052 92° East  Level Estimated
Tue 05:29:00 PM -34.6191 -65.8924 92° East  Level Estimated
Tue 05:30:00 PM -34.6216 -65.7796 92° East  Level Estimated
Tue 05:31:00 PM -34.6240 -65.6667 92° East  Level Estimated
Tue 05:32:00 PM -34.6263 -65.5539 91° East  Level Estimated
Tue 05:33:00 PM -34.6284 -65.4411 91° East  Level Estimated
Tue 05:34:00 PM -34.6305 -65.3283 91° East  Level Estimated
Tue 05:35:00 PM -34.6325 -65.2154 91° East  Level Estimated
Tue 05:36:00 PM -34.6343 -65.1026 91° East  Level Estimated
Tue 05:37:00 PM -34.6361 -64.9897 91° East  Level Estimated
Tue 05:38:00 PM -34.6378 -64.8769 91° East  Level Estimated
Tue 05:39:00 PM -34.6393 -64.7640 91° East  Level Estimated
Tue 05:40:00 PM -34.6408 -64.6512 91° East  Level Estimated
Tue 05:41:00 PM -34.6421 -64.5383 91° East  Level Estimated
Tue 05:42:00 PM -34.6433 -64.4254 91° East  Level Estimated
Tue 05:43:00 PM -34.6445 -64.3126 91° East  Level Estimated
Tue 05:44:00 PM -34.6455 -64.1997 91° East  Level Estimated
Tue 05:45:00 PM -34.6464 -64.0868 91° East  Level Estimated
Tue 05:46:00 PM -34.6473 -63.9739 91° East  Level Estimated
Tue 05:47:00 PM -34.6480 -63.8610 90° East  Level Estimated
Tue 05:48:00 PM -34.6486 -63.7481 90° East  Level Estimated
Tue 05:49:00 PM -34.6491 -63.6353 90° East  Level Estimated
Tue 05:50:00 PM -34.6495 -63.5224 90° East  Level Estimated
Tue 05:51:00 PM -34.6498 -63.4095 90° East  Level Estimated
Tue 05:52:00 PM -34.6500 -63.2966 90° East  Level Estimated
Tue 05:53:00 PM -34.6501 -63.1837 90° East  Level Estimated
Tue 05:54:00 PM -34.6501 -63.0708 90° East  Level Estimated
Tue 05:55:00 PM -34.6500 -62.9579 90° East  Level Estimated
Tue 05:56:00 PM -34.6498 -62.8450 90° East  Level Estimated
Tue 05:57:00 PM -34.6495 -62.7321 90° East  Level Estimated
Tue 05:57:26 PM -35.0150 -60.3700 90° East 459 528 30,500  Level FlightAware ADS-B
Tue 05:58:01 PM -35.0170 -60.2800 92° East 441 507 29,900 -1,099 Descending FlightAware ADS-B
Tue 05:58:37 PM -35.0180 -60.1920 91° East 423 487 29,200 -1,739 Descending FlightAware ADS-B
Tue 05:59:10 PM -35.0190 -60.1150 91° East 427 491 27,900 -1,853 Descending FlightAware ADS-B
Tue 05:59:45 PM -35.0210 -60.0310 92° East 414 476 27,100 -1,417 Descending FlightAware ADS-B
Tue 06:00:22 PM -35.0220 -59.9480 91° East 401 461 26,200 -1,397 Descending FlightAware ADS-B
Tue 06:00:58 PM -35.0230 -59.8690 91° East 388 447 25,400 -1,268 Descending FlightAware ADS-B
Tue 06:01:33 PM -35.0240 -59.7910 91° East 377 434 24,700 -1,286 Descending FlightAware ADS-B
Tue 06:02:08 PM -35.0250 -59.7170 91° East 372 428 23,900 -2,096 Descending FlightAware ADS-B
Tue 06:02:56 PM -35.0180 -59.6170 85° East 389 448 21,800 -2,344 Descending FlightAware ADS-B
Tue 06:03:12 PM -35.0030 -59.5850 60° Northeast 382 440 21,400 -1,500 Descending FlightAware ADS-B
Tue 06:03:44 PM -34.9720 -59.5300 55° Northeast 369 425 20,600 -2,029 Descending FlightAware ADS-B
Tue 06:04:20 PM -34.9380 -59.4670 57° Northeast 372 428 19,100 -2,500 Descending FlightAware ADS-B
Tue 06:04:56 PM -34.9030 -59.4040 56° Northeast 380 437 17,600 -2,143 Descending FlightAware ADS-B
Tue 06:05:30 PM -34.8700 -59.3430 57° Northeast 371 427 16,600 -1,826 Descending FlightAware ADS-B
Tue 06:06:05 PM -34.8370 -59.2840 56° Northeast 368 423 15,500 -1,853 Descending FlightAware ADS-B
Tue 06:06:38 PM -34.8050 -59.2260 56° Northeast 360 414 14,500 -1,800 Descending FlightAware ADS-B
Tue 06:07:15 PM -34.7710 -59.1650 56° Northeast 355 409 13,400 -1,925 Descending FlightAware ADS-B
Tue 06:07:31 PM -34.7590 -59.1370 62° Northeast 354 407 12,800 -1,875 Descending FlightAware ADS-B
Tue 06:08:03 PM -34.7420 -59.0770 71° East 346 398 11,900 -1,500 Descending FlightAware ADS-B
Tue 06:08:39 PM -34.7240 -59.0120 71° East 336 387 11,100 -1,667 Descending FlightAware ADS-B
Tue 06:09:15 PM -34.7060 -58.9470 71° East 335 386 9,900 -1,714 Descending FlightAware ADS-B
Tue 06:09:35 PM -34.6950 -58.9110 70° East 325 374 9,500 -1,143 Descending FlightAware ADS-B
Tue 06:09:57 PM -34.6850 -58.8740 72° East 316 364 9,100 -1,286 Descending FlightAware ADS-B
Tue 06:10:17 PM -34.6760 -58.8400 72° East 316 364 8,600 -1,500 Descending FlightAware ADS-B
Tue 06:10:37 PM -34.6660 -58.8060 70° East 312 359 8,100 -1,688 Descending FlightAware ADS-B
Tue 06:10:49 PM -34.6620 -58.7860 76° East 309 356 7,700 -1,773 Descending FlightAware ADS-B
Tue 06:11:21 PM -34.6670 -58.7320 96° East 300 345 6,800 -1,500 Descending FlightAware ADS-B
Tue 06:11:37 PM -34.6700 -58.7050 98° East 297 342 6,500 -1,080 Descending FlightAware ADS-B
Tue 06:12:11 PM -34.6750 -58.6510 96° East 285 328 5,900 -1,333 Descending FlightAware ADS-B
Tue 06:12:31 PM -34.6780 -58.6180 96° East 285 328 5,300 -1,313 Descending FlightAware ADS-B
Tue 06:12:43 PM -34.6790 -58.6000 94° East 278 320 5,200 -563 Descending FlightAware ADS-B
Tue 06:13:03 PM -34.6820 -58.5690 97° East 265 305 5,000 -286 Descending FlightAware ADS-B
Tue 06:13:25 PM -34.6850 -58.5380 97° East 244 281 5,000  Level FlightAware ADS-B
Tue 06:13:49 PM -34.6880 -58.5060 97° East 237 273 5,000  Level FlightAware ADS-B
Tue 06:14:05 PM -34.6890 -58.4850 93° East 237 273 5,000  Level FlightAware ADS-B
Tue 06:14:29 PM -34.6920 -58.4520 96° East 236 272 5,000  Level FlightAware ADS-B
Tue 06:14:50 PM -34.6950 -58.4260 98° East 235 270 5,000 -150 Level FlightAware ADS-B
Tue 06:15:09 PM -34.6970 -58.4010 96° East 230 265 4,900 -514 Descending FlightAware ADS-B
Tue 06:15:25 PM -34.6990 -58.3800 97° East 221 254 4,700 -667 Descending FlightAware ADS-B
Tue 06:15:45 PM -34.7010 -58.3570 96° East 209 241 4,500 -900 Descending FlightAware ADS-B
Tue 06:16:05 PM -34.7030 -58.3330 96° East 210 242 4,100 -1,227 Descending FlightAware ADS-B
Tue 06:16:29 PM -34.7050 -58.3060 95° East 209 241 3,600 -1,227 Descending FlightAware ADS-B
Tue 06:16:49 PM -34.7070 -58.2810 96° East 208 239 3,200 -1,200 Descending FlightAware ADS-B
Tue 06:17:19 PM -34.6990 -58.2510 72° East 213 245 2,600 -1,235 Descending FlightAware ADS-B
Tue 06:17:23 PM -34.6950 -58.2480 32° Northeast 210 242 2,500 -1,500 Descending FlightAware ADS-B
Tue 06:17:31 PM -34.6870 -58.2470 North 199 229 2,300 -1,071 Descending FlightAware ADS-B
Tue 06:17:51 PM -34.6710 -58.2550 338° Northwest 176 203 2,000 -545 Descending FlightAware ADS-B
Tue 06:18:15 PM -34.6570 -58.2680 323° Northwest 150 173 1,900 -136 Descending FlightAware ADS-B
Tue 06:18:35 PM -34.6450 -58.2770 328° Northwest 143 165 1,900  Level FlightAware ADS-B
Tue 06:18:56 PM -34.6330 -58.2840 334° Northwest 142 163 1,900  Level FlightAware ADS-B
Tue 06:19:04 PM -34.6300 -58.2880 312° West 129 148 1,900  Level FlightAware ADS-B
Tue 06:19:23 PM -34.6230 -58.3000 305° West 131 151 1,900 -300 Level FlightAware ADS-B
Tue 06:19:44 PM -34.6160 -58.3130 303° West 133 153 1,700 -732 Descending FlightAware ADS-B
Tue 06:20:04 PM -34.6090 -58.3260 303° West 130 150 1,400 -686 Descending FlightAware ADS-B
Tue 06:20:19 PM -34.6040 -58.3350 304° West 129 148 1,300 -514 Descending FlightAware ADS-B
Tue 06:20:39 PM -34.5970 -58.3470 305° West 132 152 1,100 -750 Descending FlightAware ADS-B
Tue 06:20:59 PM -34.5900 -58.3590 305° West 134 154 800 -667 Descending FlightAware ADS-B
Tue 06:21:24 PM -34.5820 -58.3750 301° West 130 150 600 -649 Descending FlightAware ADS-B
Tue 06:21:36 PM -34.5780 -58.3830 301° West 137 158 400 -340 Descending FlightAware ADS-B
Tue 06:22:17 PM -34.5650 -58.4050 306° West 133 153 300 -146 Descending FlightAware ADS-B
Tue 06:24:00 PM -34.5592 -58.4156 90° East  Level Estimated
Tue 06:25:00 PM -34.5592 -58.4156 90° East  Level Estimated

Login

Don't have an account? Register now (free) for customized features, flight alerts, and more!